Time;durP1;ratioP1;P1;durP2;ratioP2;P2;SDS_P1;SDS_P2;PMS_P1;PMS_P2;Temp;Humidity;BMP_temperature;BMP_pressure;BME280_temperature;BME280_humidity;BME280_pressure;Samples;Min_cycle;Max_cycle;Signal;HPM_P1;HPM_P2
2021/01/24 00:02:33;;;;;;;20.50;11.48;;;;;;;;;;5024864;28;20249;-94
2021/01/24 00:05:15;;;;;;;25.83;11.05;;;;;;;;;;5031600;28;20030;-91
2021/01/24 00:08:02;;;;;;;26.33;12.85;;;;;;;;;;5027600;28;20049;-90
2021/01/24 00:10:45;;;;;;;27.00;13.15;;;;;;;;;;5023388;28;20054;-90
2021/01/24 00:13:46;;;;;;;35.15;12.23;;;;;;;;;;4672082;28;9999737;-89
2021/01/24 00:16:15;;;;;;;21.35;11.13;;;;;;;;;;5019178;28;20060;-89
2021/01/24 00:18:47;;;;;;;18.48;9.98;;;;;;;;;;4995852;28;20049;-92
2021/01/24 00:21:39;;;;;;;26.48;10.13;;;;;;;;;;5016224;28;20437;-91
2021/01/24 00:24:17;;;;;;;24.73;10.45;;;;;;;;;;5012869;23;20057;-89
2021/01/24 00:27:46;;;;;;;35.20;9.55;;;;;;;;;;5024253;23;20050;-88
2021/01/24 00:30:52;;;;;;;22.65;10.70;;;;;;;;;;5021128;28;20058;-89
2021/01/24 00:33:27;;;;;;;22.25;9.73;;;;;;;;;;5023118;28;20037;-89
2021/01/24 00:36:12;;;;;;;23.52;9.27;;;;;;;;;;5011554;23;20058;-89
2021/01/24 00:39:16;;;;;;;17.65;8.77;;;;;;;;;;4983888;28;20054;-91
2021/01/24 00:42:30;;;;;;;19.83;9.60;;;;;;;;;;4970212;28;20047;-90
2021/01/24 00:59:37;;;;;;;19.33;9.48;;;;;;;;;;4986397;23;20068;-88
2021/01/24 01:02:49;;;;;;;21.45;10.10;;;;;;;;;;5020300;28;20060;-89
2021/01/24 01:06:00;;;;;;;21.58;9.48;;;-0.10;99.90;;;;;;5011596;28;20062;-89
2021/01/24 01:09:14;;;;;;;22.52;11.93;;;-0.10;99.90;;;;;;5020526;28;20069;-89
2021/01/24 01:12:20;;;;;;;29.25;10.27;;;;;;;;;;5024944;28;20050;-89
2021/01/24 01:15:10;;;;;;;24.50;10.18;;;;;;;;;;5023186;28;20054;-91
2021/01/24 01:17:39;;;;;;;22.30;9.52;;;;;;;;;;5013044;28;20072;-88
2021/01/24 01:20:14;;;;;;;18.38;9.45;;;;;;;;;;5013978;28;20046;-90
2021/01/24 01:22:43;;;;;;;26.25;9.27;;;;;;;;;;5013514;28;20368;-88
2021/01/24 01:25:18;;;;;;;17.33;8.57;;;;;;;;;;5013316;28;20043;-87
2021/01/24 01:27:52;;;;;;;19.85;8.77;;;;;;;;;;5009184;28;20042;-90
2021/01/24 01:30:22;;;;;;;20.27;9.35;;;;;;;;;;5029847;28;20053;-87
2021/01/24 01:32:53;;;;;;;14.40;9.00;;;;;;;;;;5009632;28;20060;-91
2021/01/24 01:35:21;;;;;;;27.00;9.82;;;;;;;;;;5026273;28;20280;-89
2021/01/24 01:37:53;;;;;;;24.08;9.80;;;;;;;;;;5018728;28;20409;-87
2021/01/24 01:40:23;;;;;;;18.05;7.85;;;;;;;;;;5018469;28;20054;-90
2021/01/24 01:42:56;;;;;;;18.67;8.68;;;;;;;;;;5007961;28;20050;-90
2021/01/24 01:45:25;;;;;;;20.30;9.93;;;;;;;;;;4985931;28;20061;-88
2021/01/24 01:47:55;;;;;;;17.80;7.35;;;;;;;;;;5001845;28;20062;-91
2021/01/24 01:50:24;;;;;;;21.45;8.10;;;;;;;;;;5013622;28;20065;-88
2021/01/24 01:52:58;;;;;;;;;;;-0.30;99.90;;;;;;5012217;28;20054;-89
2021/01/24 01:55:27;;;;;;;22.80;8.40;;;;;;;;;;5002578;28;19944;-91
2021/01/24 01:57:56;;;;;;;18.15;7.15;;;;;;;;;;5006775;28;20057;-91
2021/01/24 02:00:25;;;;;;;12.68;7.38;;;;;;;;;;4997607;28;20065;-91
2021/01/24 02:03:30;;;;;;;19.90;6.97;;;;;;;;;;5009229;28;20042;-90
2021/01/24 02:06:01;;;;;;;22.90;7.55;;;;;;;;;;5005994;28;20433;-90
2021/01/24 02:09:00;;;;;;;19.13;6.70;;;-0.40;99.90;;;;;;4992147;28;20062;-89
2021/01/24 02:11:55;;;;;;;13.60;6.05;;;-0.30;99.90;;;;;;5006971;28;20050;-90
2021/01/24 02:14:36;;;;;;;13.90;8.25;;;-0.30;99.90;;;;;;4982757;28;20054;-90
2021/01/24 02:17:07;;;;;;;;;;;-0.40;99.90;;;;;;4987140;28;20518;-90
2021/01/24 02:20:07;;;;;;;15.27;6.97;;;-0.40;99.90;;;;;;5000665;28;19925;-91
2021/01/24 02:22:40;;;;;;;16.52;6.80;;;-0.40;99.90;;;;;;5024491;28;20056;-89
2021/01/24 02:25:40;;;;;;;11.95;6.10;;;-0.40;99.90;;;;;;4972642;28;20399;-90
2021/01/24 02:28:45;;;;;;;13.27;6.80;;;-0.40;99.90;;;;;;5012811;28;20054;-91
2021/01/24 02:31:16;;;;;;;15.70;5.20;;;;;;;;;;4984459;28;20048;-93
2021/01/24 02:33:53;;;;;;;17.67;5.97;;;-0.30;99.90;;;;;;4992336;28;20070;-88
2021/01/24 02:36:27;;;;;;;13.35;6.18;;;-0.30;99.90;;;;;;5005233;28;20057;-90
2021/01/24 02:38:56;;;;;;;10.70;6.75;;;;;;;;;;4985070;28;20062;-91
2021/01/24 02:41:26;;;;;;;15.15;5.57;;;;;;;;;;5022503;28;20057;-89
2021/01/24 02:43:58;;;;;;;13.35;6.20;;;;;;;;;;5022830;28;20058;-92
2021/01/24 02:46:26;;;;;;;13.40;6.05;;;;;;;;;;5027993;28;20055;-91
2021/01/24 02:48:56;;;;;;;10.30;5.57;;;;;;;;;;4986928;28;20046;-90
2021/01/24 02:51:25;;;;;;;10.50;5.55;;;;;;;;;;4986730;28;20561;-90
2021/01/24 02:53:53;;;;;;;15.25;5.13;;;;;;;;;;5013577;28;20053;-90
2021/01/24 02:56:21;;;;;;;14.95;6.28;;;;;;;;;;5006465;28;20065;-93
2021/01/24 02:58:50;;;;;;;14.85;6.82;;;-0.50;99.90;;;;;;5011094;28;20064;-92
2021/01/24 03:01:18;;;;;;;11.48;5.72;;;;;;;;;;5001404;28;20050;-90
2021/01/24 03:03:48;;;;;;;20.30;6.43;;;;;;;;;;5021426;28;20061;-87
2021/01/24 03:06:16;;;;;;;13.25;6.57;;;;;;;;;;5017702;28;20057;-92
2021/01/24 03:08:44;;;;;;;11.43;5.13;;;;;;;;;;5021524;28;20050;-91
2021/01/24 03:11:15;;;;;;;8.93;4.95;;;-0.50;99.90;;;;;;5020914;28;20045;-91
2021/01/24 03:13:51;;;;;;;13.90;6.63;;;;;;;;;;5001493;28;20350;-95
2021/01/24 03:16:21;;;;;;;12.40;4.95;;;-0.40;99.90;;;;;;4998680;28;20046;-90
2021/01/24 03:18:51;;;;;;;10.93;4.60;;;-0.60;99.90;;;;;;5015745;28;20061;-95
2021/01/24 03:21:24;;;;;;;9.85;4.68;;;;;;;;;;5027203;28;20060;-87
2021/01/24 03:23:53;;;;;;;12.90;5.00;;;;;;;;;;5023103;28;20050;-89
2021/01/24 03:26:21;;;;;;;11.25;6.45;;;;;;;;;;4995894;28;20060;-91
2021/01/24 03:28:49;;;;;;;10.60;6.43;;;;;;;;;;5019047;28;20056;-90
2021/01/24 03:31:21;;;;;;;6.35;4.93;;;-0.60;99.90;;;;;;5020191;28;20046;-90
2021/01/24 03:33:52;;;;;;;9.80;4.93;;;-0.60;99.90;;;;;;5009910;28;20056;-92
2021/01/24 03:36:20;;;;;;;10.77;4.63;;;;;;;;;;5018345;28;20057;-90
2021/01/24 03:38:47;;;;;;;8.82;5.20;;;;;;;;;;5019962;28;20054;-94
2021/01/24 03:41:16;;;;;;;7.32;4.57;;;;;;;;;;5020277;28;20050;-90
2021/01/24 03:43:45;;;;;;;12.60;5.78;;;;;;;;;;5011627;28;20514;-90
2021/01/24 03:46:13;;;;;;;10.90;5.20;;;;;;;;;;5019231;28;20053;-91
2021/01/24 03:48:48;;;;;;;13.15;6.72;;;;;;;;;;5017299;28;20409;-94
2021/01/24 03:51:16;;;;;;;10.52;4.95;;;;;;;;;;5015115;28;20051;-92
2021/01/24 03:53:44;;;;;;;11.43;5.10;;;;;;;;;;4999174;28;20073;-95
2021/01/24 03:56:12;;;;;;;7.60;4.10;;;;;;;;;;5012803;28;20054;-90
2021/01/24 03:58:40;;;;;;;9.88;4.55;;;;;;;;;;5007654;28;20062;-91
2021/01/24 04:01:08;;;;;;;7.88;4.70;;;;;;;;;;5000415;28;20058;-91
2021/01/24 04:03:35;;;;;;;6.22;4.03;;;;;;;;;;4997399;28;20442;-92
2021/01/24 04:06:12;;;;;;;7.78;3.33;;;;;;;;;;5012716;28;20049;-91
2021/01/24 04:08:41;;;;;;;6.88;4.60;;;;;;;;;;5007800;28;20054;-91
2021/01/24 04:11:09;;;;;;;11.20;4.88;;;;;;;;;;5004132;28;20050;-91
2021/01/24 04:13:38;;;;;;;11.95;4.25;;;;;;;;;;5008238;28;20076;-94
2021/01/24 04:16:08;;;;;;;7.18;4.72;;;;;;;;;;5007320;28;20054;-90
2021/01/24 04:18:36;;;;;;;8.43;4.45;;;;;;;;;;4981665;28;20054;-90
2021/01/24 04:21:04;;;;;;;8.73;4.57;;;-0.60;99.90;;;;;;5015720;28;20049;-94
2021/01/24 04:23:32;;;;;;;9.05;4.05;;;;;;;;;;4997816;28;20063;-92
2021/01/24 04:26:00;;;;;;;11.70;4.72;;;;;;;;;;5018676;28;20065;-92
2021/01/24 04:28:27;;;;;;;9.05;4.72;;;;;;;;;;5002381;28;20073;-93
2021/01/24 04:30:57;;;;;;;11.00;3.85;;;;;;;;;;5036382;28;20045;-93
2021/01/24 04:33:26;;;;;;;11.73;5.35;;;;;;;;;;5008887;28;20049;-91
2021/01/24 04:35:54;;;;;;;11.23;5.40;;;;;;;;;;5013824;28;20066;-89
2021/01/24 04:38:22;;;;;;;12.77;4.82;;;;;;;;;;4996363;28;20866;-94
2021/01/24 04:40:50;;;;;;;8.68;5.00;;;;;;;;;;5011052;28;20069;-91
2021/01/24 04:43:18;;;;;;;10.63;4.25;;;;;;;;;;5013000;28;20433;-90
2021/01/24 04:45:51;;;;;;;9.88;4.93;;;;;;;;;;5031814;28;20046;-90
2021/01/24 04:48:26;;;;;;;12.50;5.32;;;;;;;;;;4987005;28;20101;-91
2021/01/24 04:50:58;;;;;;;10.05;4.72;;;-0.60;99.90;;;;;;5019342;28;20045;-91
2021/01/24 04:53:42;;;;;;;9.25;4.88;;;;;;;;;;5021701;28;20053;-91
2021/01/24 04:56:11;;;;;;;10.27;4.72;;;;;;;;;;5022875;28;20054;-91
2021/01/24 04:59:01;;;;;;;12.88;5.78;;;;;;;;;;5016677;28;20081;-91
2021/01/24 05:01:36;;;;;;;13.98;5.10;;;-0.60;99.90;;;;;;5017947;28;20057;-93
2021/01/24 05:04:23;;;;;;;13.23;4.60;;;;;;;;;;4997370;28;20058;-90
2021/01/24 05:07:23;;;;;;;13.82;5.00;;;;;;;;;;5019183;28;20176;-91
2021/01/24 05:09:58;;;;;;;9.45;4.57;;;;;;;;;;5027828;28;20049;-92
2021/01/24 05:12:33;;;;;;;14.77;5.10;;;;;;;;;;5015665;28;20046;-92
2021/01/24 05:15:10;;;;;;;11.32;4.30;;;-0.40;99.90;;;;;;5012772;28;20044;-90
2021/01/24 05:18:01;;;;;;;14.57;5.50;;;-0.50;99.90;;;;;;5013510;28;20046;-92
2021/01/24 05:20:34;;;;;;;8.35;4.57;;;;;;;;;;5025665;28;20053;-89
2021/01/24 05:23:05;;;;;;;8.68;4.55;;;;;;;;;;5012429;28;20038;-89
2021/01/24 05:25:41;;;;;;;10.43;4.45;;;;;;;;;;5025891;28;20052;-88
2021/01/24 05:28:19;;;;;;;10.27;4.72;;;-0.50;99.90;;;;;;5011891;28;20056;-92
2021/01/24 05:31:07;;;;;;;26.33;5.20;;;;;;;;;;5027452;28;20053;-92
2021/01/24 05:33:46;;;;;;;12.23;4.25;;;;;;;;;;5026853;28;20057;-90
2021/01/24 05:36:14;;;;;;;7.63;4.05;;;;;;;;;;5009194;28;20045;-91
2021/01/24 05:38:45;;;;;;;9.38;4.13;;;;;;;;;;5027135;28;20068;-91
2021/01/24 05:41:19;;;;;;;10.02;4.53;;;;;;;;;;5007804;28;20046;-89
2021/01/24 05:43:55;;;;;;;7.60;4.13;;;;;;;;;;5007207;28;20414;-91
2021/01/24 05:46:32;;;;;;;12.93;4.40;;;-0.50;99.90;;;;;;5006325;28;20050;-92
2021/01/24 05:49:01;;;;;;;5.20;4.03;;;;;;;;;;5005365;28;20050;-93
2021/01/24 05:51:32;;;;;;;12.00;5.83;;;;;;;;;;4993900;28;20486;-91
2021/01/24 05:54:04;;;;;;;10.45;4.40;;;;;;;;;;5025383;28;20288;-91
2021/01/24 05:56:42;;;;;;;11.10;3.95;;;;;;;;;;5026105;28;20167;-93
2021/01/24 05:59:15;;;;;;;7.15;3.90;;;;;;;;;;5027714;28;20046;-91
2021/01/24 06:01:43;;;;;;;8.68;4.65;;;;;;;;;;5030471;28;20496;-90
2021/01/24 06:04:16;;;;;;;7.95;3.85;;;;;;;;;;4993023;28;20061;-92
2021/01/24 06:06:51;;;;;;;6.27;3.27;;;-0.40;99.90;;;;;;4991643;28;20054;-91
2021/01/24 06:09:20;;;;;;;12.15;4.63;;;;;;;;;;5018091;28;21008;-94
2021/01/24 06:11:51;;;;;;;8.73;3.97;;;;;;;;;;4989630;28;20061;-91
2021/01/24 06:14:20;;;;;;;13.95;4.32;;;;;;;;;;4998448;28;20050;-91
2021/01/24 06:16:52;;;;;;;8.45;3.78;;;;;;;;;;4992111;28;20051;-90
2021/01/24 06:19:25;;;;;;;10.38;3.83;;;;;;;;;;5009196;28;20050;-92
2021/01/24 06:21:54;;;;;;;4.78;3.38;;;;;;;;;;4998910;28;20058;-90
2021/01/24 06:24:35;;;;;;;5.85;3.50;;;;;;;;;;5028167;28;20068;-94
2021/01/24 06:27:06;;;;;;;5.32;3.17;;;;;;;;;;5005756;28;20482;-90
2021/01/24 06:29:36;;;;;;;6.72;3.67;;;;;;;;;;5005129;28;20493;-89
2021/01/24 06:32:06;;;;;;;10.63;3.53;;;;;;;;;;5022134;28;20418;-93
2021/01/24 06:34:41;;;;;;;13.05;3.70;;;-0.30;99.90;;;;;;4988797;28;20046;-93
2021/01/24 06:37:20;;;;;;;5.18;4.07;;;;;;;;;;5025633;28;20054;-91
2021/01/24 06:40:00;;;;;;;8.57;4.53;;;;;;;;;;4977638;28;20049;-91
2021/01/24 06:42:48;;;;;;;12.02;4.13;;;-0.10;99.90;;;;;;5014653;28;20058;-90
2021/01/24 06:45:32;;;;;;;9.65;5.20;;;;;;;;;;5017762;28;20058;-89
2021/01/24 06:48:06;;;;;;;19.50;5.00;;;;;;;;;;5017714;28;20060;-89
2021/01/24 06:50:39;;;;;;;12.38;4.78;;;;;;;;;;5015283;28;20054;-91
2021/01/24 06:53:15;;;;;;;10.65;4.88;;;;;;;;;;5008099;28;20056;-92
2021/01/24 06:56:09;;;;;;;9.85;4.93;;;-0.30;99.90;;;;;;4995222;28;20041;-91
2021/01/24 06:58:50;;;;;;;14.32;4.80;;;-0.20;99.90;;;;;;4978430;28;20049;-91
2021/01/24 07:01:28;;;;;;;9.45;5.53;;;-0.50;99.90;;;;;;5013791;28;20068;-89
2021/01/24 07:04:20;;;;;;;27.88;5.43;;;-0.30;99.90;;;;;;5017678;28;20505;-92
2021/01/24 07:07:21;;;;;;;5.68;3.78;;;-0.20;99.90;;;;;;5028247;28;20050;-90
2021/01/24 07:09:53;;;;;;;8.75;4.13;;;;;;;;;;5007664;28;20046;-94
2021/01/24 07:12:37;;;;;;;11.50;4.28;;;-0.10;99.90;;;;;;4989690;28;20694;-90
2021/01/24 07:15:19;;;;;;;14.40;4.72;;;-0.10;99.90;;;;;;5011564;28;20054;-91
2021/01/24 07:18:16;;;;;;;8.38;4.57;;;;;;;;;;5025787;28;20050;-89
2021/01/24 07:21:06;;;;;;;13.95;5.18;;;;;;;;;;5028240;28;20559;-91
2021/01/24 07:23:46;;;;;;;12.40;4.75;;;;;;;;;;5011594;28;20054;-90
2021/01/24 07:26:22;;;;;;;9.00;5.38;;;;;;;;;;5047168;28;20036;-90
2021/01/24 07:28:50;;;;;;;20.88;6.13;;;;;;;;;;5011042;28;20520;-92
2021/01/24 07:31:34;;;;;;;12.80;5.95;;;0.00;99.90;;;;;;5012276;28;20104;-92
2021/01/24 07:34:11;;;;;;;17.42;8.18;;;;;;;;;;5038942;28;20046;-92
2021/01/24 07:36:43;;;;;;;13.80;5.82;;;;;;;;;;5033278;28;20551;-92
2021/01/24 07:39:22;;;;;;;18.27;7.15;;;;;;;;;;5011452;28;20718;-91
2021/01/24 07:41:52;;;;;;;15.15;6.38;;;;;;;;;;5004641;28;20414;-89
2021/01/24 07:44:26;;;;;;;16.15;5.85;;;;;;;;;;5027320;28;20049;-91
2021/01/24 07:46:55;;;;;;;14.02;6.50;;;;;;;;;;5030333;28;20510;-90
2021/01/24 07:49:30;;;;;;;17.67;5.43;;;;;;;;;;5015179;28;20049;-91
2021/01/24 07:52:07;;;;;;;16.23;6.25;;;;;;;;;;5012923;28;20550;-91
2021/01/24 07:54:39;;;;;;;17.83;5.80;;;;;;;;;;5030857;28;20489;-92
2021/01/24 07:57:11;;;;;;;15.00;5.65;;;;;;;;;;5040215;28;20069;-92
2021/01/24 07:59:39;;;;;;;9.52;5.13;;;;;;;;;;5011946;28;20048;-90
2021/01/24 08:02:21;;;;;;;12.38;5.75;;;0.00;99.90;;;;;;4972019;28;20060;-90
2021/01/24 08:05:15;;;;;;;9.98;4.40;;;0.20;99.90;;;;;;5042580;28;20053;-90
2021/01/24 08:08:01;;;;;;;9.40;4.75;;;0.20;99.90;;;;;;5031101;28;20072;-92
2021/01/24 08:11:07;;;;;;;7.15;3.85;;;;;;;;;;5031233;28;20149;-91
2021/01/24 08:13:51;;;;;;;11.60;5.05;;;;;;;;;;5026074;28;20054;-91
2021/01/24 08:16:50;;;;;;;15.45;6.00;;;0.30;99.90;;;;;;5022940;28;20044;-90
2021/01/24 08:19:26;;;;;;;5.72;4.10;;;;;;;;;;5019776;28;20060;-90
2021/01/24 08:22:03;;;;;;;6.68;4.00;;;;;;;;;;5031613;23;20042;-92
2021/01/24 08:25:06;;;;;;;11.02;4.05;;;0.50;99.90;;;;;;5006902;28;20067;-91
2021/01/24 08:27:45;;;;;;;14.25;4.95;;;0.40;99.90;;;;;;4977451;28;20058;-90
2021/01/24 08:30:33;;;;;;;14.50;5.18;;;;;;;;;;5003105;28;20049;-88
2021/01/24 08:33:22;;;;;;;12.10;4.40;;;0.40;99.90;;;;;;4972381;28;20073;-89
2021/01/24 08:36:19;;;;;;;8.85;4.68;;;0.80;99.90;;;;;;4998425;23;20064;-94
2021/01/24 08:38:55;;;;;;;11.30;4.35;;;;;;;;;;4975735;28;20050;-90
2021/01/24 08:41:39;;;;;;;10.35;4.80;;;0.50;99.90;;;;;;5011705;28;20075;-92
2021/01/24 08:44:18;;;;;;;9.00;4.50;;;;;;;;;;5014194;28;20064;-89
2021/01/24 08:47:04;;;;;;;8.10;3.90;;;0.70;99.90;;;;;;4986330;28;20050;-91
2021/01/24 08:49:41;;;;;;;13.27;4.82;;;0.60;99.90;;;;;;5007848;28;20062;-90
2021/01/24 08:52:22;;;;;;;11.05;5.22;;;;;;;;;;4997409;28;20251;-92
2021/01/24 08:55:00;;;;;;;11.23;5.28;;;;;;;;;;4999896;28;20054;-90
2021/01/24 08:57:37;;;;;;;8.18;4.32;;;;;;;;;;4993608;28;20046;-91
2021/01/24 09:00:16;;;;;;;9.25;4.95;;;;;;;;;;4977859;28;20058;-94
2021/01/24 09:02:48;;;;;;;7.28;4.20;;;;;;;;;;5009514;28;20065;-94
2021/01/24 09:05:28;;;;;;;10.02;3.65;;;;;;;;;;5016039;28;20038;-90
2021/01/24 09:07:59;;;;;;;8.38;3.65;;;;;;;;;;4630751;28;9999921;-92
2021/01/24 09:10:28;;;;;;;12.30;3.85;;;;;;;;;;5001467;28;20047;-92
2021/01/24 09:13:04;;;;;;;7.53;3.58;;;1.10;99.90;;;;;;5006867;28;20053;-91
2021/01/24 09:15:40;;;;;;;4.75;4.18;;;;;;;;;;5020171;28;20066;-90
2021/01/24 09:18:09;;;;;;;11.68;4.13;;;;;;;;;;5010034;28;20050;-90
2021/01/24 09:20:37;;;;;;;11.43;4.95;;;;;;;;;;4978342;28;20051;-92
2021/01/24 09:23:10;;;;;;;15.48;4.90;;;;;;;;;;5003551;28;20050;-89
2021/01/24 09:25:37;;;;;;;5.22;4.05;;;;;;;;;;5010391;28;20057;-90
2021/01/24 09:28:07;;;;;;;12.63;6.43;;;;;;;;;;5010966;28;20050;-89
2021/01/24 09:30:37;;;;;;;11.70;6.03;;;;;;;;;;5010444;28;20053;-91
2021/01/24 09:33:06;;;;;;;8.57;3.38;;;;;;;;;;4995660;23;20054;-90
2021/01/24 09:35:34;;;;;;;7.43;4.55;;;;;;;;;;4991998;28;20058;-93
2021/01/24 09:38:02;;;;;;;6.22;4.78;;;;;;;;;;4995661;28;20047;-87
2021/01/24 09:40:35;;;;;;;10.65;4.25;;;;;;;;;;5004601;28;20058;-88
2021/01/24 09:43:05;;;;;;;11.32;4.00;;;;;;;;;;4993346;28;20043;-90
2021/01/24 09:45:37;;;;;;;8.65;3.17;;;;;;;;;;4990932;28;20068;-91
2021/01/24 09:48:15;;;;;;;7.18;3.90;;;;;;;;;;5014091;28;20481;-90
2021/01/24 09:50:51;;;;;;;10.68;4.30;;;;;;;;;;5007194;23;20061;-90
2021/01/24 09:53:24;;;;;;;14.80;3.53;;;;;;;;;;5013046;28;20050;-90
2021/01/24 09:55:53;;;;;;;9.02;3.60;;;;;;;;;;5025406;28;20564;-88
2021/01/24 09:58:26;;;;;;;18.20;7.10;;;;;;;;;;5015422;23;20053;-89
2021/01/24 10:00:57;;;;;;;11.98;4.95;;;;;;;;;;5058353;23;20054;-89
2021/01/24 10:03:27;;;;;;;7.63;3.90;;;;;;;;;;5011060;28;20045;-90
2021/01/24 10:06:07;;;;;;;10.88;4.30;;;;;;;;;;4976914;28;20054;-89
2021/01/24 10:08:37;;;;;;;11.60;4.83;;;;;;;;;;4983308;28;20062;-88
2021/01/24 10:11:10;;;;;;;14.43;4.93;;;;;;;;;;5019656;28;20307;-88
2021/01/24 10:13:51;;;;;;;13.27;4.88;;;;;;;;;;4990682;28;20390;-87
2021/01/24 10:16:43;;;;;;;10.60;4.97;;;2.20;99.90;;;;;;4993167;23;20058;31
2021/01/24 10:19:48;;;;;;;10.07;4.13;;;;;;;;;;4951896;29;19922;-91
2021/01/24 10:22:46;;;;;;;19.40;5.20;;;;;;;;;;4959037;29;20058;-90
2021/01/24 10:25:16;;;;;;;11.32;4.82;;;;;;;;;;4949023;29;20035;-88
2021/01/24 10:27:59;;;;;;;6.85;4.60;;;;;;;;;;4950649;29;20439;-88
2021/01/24 10:30:41;;;;;;;14.27;5.65;;;;;;;;;;4934782;29;20059;-88
2021/01/24 10:33:15;;;;;;;7.13;4.25;;;;;;;;;;4945609;29;20059;-88
2021/01/24 10:35:45;;;;;;;;;;;2.20;99.90;;;;;;4937639;29;20035;-89
2021/01/24 10:38:13;;;;;;;8.52;4.32;;;;;;;;;;4949580;29;19937;-88
2021/01/24 10:40:46;;;;;;;9.63;4.88;;;;;;;;;;4964270;29;20047;-87
2021/01/24 10:43:43;;;;;;;7.10;3.97;;;;;;;;;;4977511;28;20059;-89
2021/01/24 10:46:48;;;;;;;7.50;3.95;;;;;;;;;;4945644;28;20055;-88
2021/01/24 10:49:23;;;;;;;9.88;3.97;;;;;;;;;;4967732;28;20062;-88
2021/01/24 10:51:52;;;;;;;12.32;4.68;;;;;;;;;;4953042;28;20059;-88
2021/01/24 10:54:25;;;;;;;6.18;4.53;;;;;;;;;;4962442;29;20055;-89
2021/01/24 10:57:00;;;;;;;9.70;4.78;;;;;;;;;;4967380;29;20047;-89
2021/01/24 10:59:52;;;;;;;13.63;7.50;;;;;;;;;;4963615;29;20047;-88
2021/01/24 11:02:37;;;;;;;13.88;4.90;;;;;;;;;;4964481;23;20047;-89
2021/01/24 11:05:09;;;;;;;7.72;3.67;;;;;;;;;;4979556;23;21091;-92
2021/01/24 11:07:49;;;;;;;8.20;3.90;;;;;;;;;;5003463;28;20047;-90
2021/01/24 11:10:23;;;;;;;10.32;4.38;;;;;;;;;;4999008;28;20061;-93
2021/01/24 11:13:07;;;;;;;17.60;5.05;;;;;;;;;;5010083;28;20054;-92
2021/01/24 11:15:40;;;;;;;13.93;4.68;;;2.50;99.90;;;;;;4992793;28;20050;-91
2021/01/24 11:18:26;;;;;;;11.93;5.03;;;;;;;;;;4994324;28;20038;-93
2021/01/24 11:21:12;;;;;;;13.50;5.13;;;;;;;;;;5005767;28;20060;-93
2021/01/24 11:24:52;;;;;;;13.88;5.05;;;;;;;;;;5012911;23;20046;-93
2021/01/24 11:27:42;;;;;;;8.80;4.43;;;;;;;;;;4968408;28;20065;-92
2021/01/24 11:30:58;;;;;;;13.25;4.70;;;2.60;99.90;;;;;;4986323;28;20047;-91
2021/01/24 11:33:28;;;;;;;10.25;4.72;;;;;;;;;;4961008;28;20051;-92
2021/01/24 11:35:58;;;;;;;12.18;4.82;;;;;;;;;;4933876;28;20053;-95
2021/01/24 11:39:19;;;;;;;11.15;5.03;;;2.50;99.90;;;;;;4953005;28;20066;-93
2021/01/24 11:42:15;;;;;;;19.15;4.80;;;;;;;;;;4954701;28;20078;-93
2021/01/24 11:48:29;;;;;;;;;;;2.50;99.90;;;;;;4896722;29;20062;-94
2021/01/24 11:51:25;;;;;;;;;;;2.40;99.90;;;;;;4905190;29;20062;-93
2021/01/24 11:57:35;;;;;;;9.68;5.43;;;;;;;;;;4975085;24;20033;-95
2021/01/24 12:04:17;;;;;;;20.55;6.93;;;;;;;;;;4825093;29;20057;-94
2021/01/24 12:07:00;;;;;;;19.10;6.22;;;;;;;;;;4802958;29;20055;-92
2021/01/24 12:09:36;;;;;;;15.38;6.03;;;;;;;;;;4800110;29;20055;-93
2021/01/24 12:12:08;;;;;;;14.65;6.57;;;;;;;;;;4778164;29;20071;-92
2021/01/24 12:14:42;;;;;;;16.67;8.45;;;;;;;;;;4851124;24;20061;-91
2021/01/24 12:17:24;;;;;;;20.58;7.93;;;;;;;;;;4849746;29;20636;-92
2021/01/24 12:20:04;;;;;;;12.50;6.53;;;;;;;;;;4841632;29;20057;-88
2021/01/24 12:22:34;;;;;;;21.30;6.97;;;;;;;;;;4831157;29;20058;-88
2021/01/24 12:25:03;;;;;;;9.45;6.15;;;;;;;;;;4863309;29;20057;-90
2021/01/24 12:27:33;;;;;;;18.27;7.13;;;;;;;;;;4868197;29;20054;-91
2021/01/24 12:30:01;;;;;;;14.80;6.72;;;;;;;;;;4820113;29;20050;-93
2021/01/24 12:32:33;;;;;;;15.07;8.55;;;;;;;;;;4861953;29;20048;-90
2021/01/24 12:35:01;;;;;;;11.63;6.70;;;;;;;;;;4818177;29;20057;-91
2021/01/24 12:37:38;;;;;;;15.63;7.35;;;;;;;;;;4829675;29;20046;-91
2021/01/24 12:40:31;;;;;;;18.92;8.52;;;;;;;;;;4868135;29;20042;-92
2021/01/24 12:43:03;;;;;;;15.45;6.00;;;;;;;;;;4881722;24;20057;-92
2021/01/24 12:46:03;;;;;;;14.38;6.07;;;;;;;;;;4899130;29;20061;-92
2021/01/24 12:48:51;;;;;;;12.23;5.72;;;;;;;;;;4885535;29;20061;-93
2021/01/24 12:52:07;;;;;;;14.15;7.60;;;;;;;;;;4885713;29;20045;-91
2021/01/24 12:54:40;;;;;;;11.40;6.55;;;;;;;;;;4847950;29;20036;-92
2021/01/24 12:58:00;;;;;;;11.65;6.68;;;;;;;;;;4873553;29;20043;-93
2021/01/24 13:01:03;;;;;;;18.73;7.70;;;;;;;;;;4934060;23;20035;-90
2021/01/24 13:04:18;;;;;;;16.35;7.80;;;;;;;;;;4882282;29;20095;-91
2021/01/24 13:07:50;;;;;;;11.23;5.60;;;3.50;99.90;;;;;;4984506;23;20038;-89
2021/01/24 13:14:31;;;;;;;13.68;6.40;;;;;;;;;;4865008;29;20059;-90
2021/01/24 13:17:37;;;;;;;14.98;5.88;;;;;;;;;;4867069;29;20057;-90
2021/01/24 13:20:50;;;;;;;7.40;4.40;;;;;;;;;;4843353;29;20054;-90
2021/01/24 13:23:40;;;;;;;15.77;3.95;;;;;;;;;;4838581;29;20057;-89
2021/01/24 13:26:20;;;;;;;10.13;3.97;;;;;;;;;;4811633;29;20054;-90
2021/01/24 13:29:36;;;;;;;10.55;4.63;;;;;;;;;;4826212;29;20074;-90
2021/01/24 13:32:47;;;;;;;5.38;3.50;;;;;;;;;;4831322;29;20056;-90
2021/01/24 13:35:56;;;;;;;11.60;3.58;;;;;;;;;;4815231;29;20051;-90
2021/01/24 13:38:49;;;;;;;4.05;2.55;;;;;;;;;;4832881;29;20055;-88
2021/01/24 13:41:25;;;;;;;8.38;3.15;;;;;;;;;;4825237;29;20045;-90
2021/01/24 13:44:03;;;;;;;14.35;4.20;;;;;;;;;;4826210;29;20055;-91
2021/01/24 13:47:20;;;;;;;7.88;3.03;;;4.00;99.90;;;;;;4834382;29;20057;-89
2021/01/24 13:49:59;;;;;;;5.82;2.67;;;;;;;;;;4859342;29;20062;-94
2021/01/24 13:53:08;;;;;;;;;;;4.00;99.90;;;;;;4857248;29;20033;-92
2021/01/24 13:55:48;;;;;;;11.93;3.47;;;;;;;;;;4846005;29;19919;-90
2021/01/24 13:59:13;;;;;;;7.15;3.22;;;;;;;;;;4864422;29;20034;-91
2021/01/24 14:02:28;;;;;;;8.65;4.28;;;;;;;;;;4859666;24;20049;-90
2021/01/24 14:05:25;;;;;;;4.80;3.08;;;;;;;;;;4883282;24;20066;-89
2021/01/24 14:08:57;;;;;;;10.43;4.88;;;;;;;;;;4863614;29;20057;-93
2021/01/24 14:11:32;;;;;;;7.80;3.22;;;;;;;;;;4844991;29;20064;-90
2021/01/24 14:14:24;;;;;;;5.00;3.53;;;;;;;;;;4844800;29;20046;-92
2021/01/24 14:17:00;;;;;;;7.78;4.47;;;;;;;;;;4861126;29;20060;-92
2021/01/24 14:23:05;;;;;;;23.08;5.22;;;;;;;;;;4907668;29;20041;-92
2021/01/24 14:26:11;;;;;;;8.43;5.32;;;4.00;99.90;;;;;;4870958;29;20395;-91
2021/01/24 14:29:33;;;;;;;10.50;4.65;;;;;;;;;;4874058;29;20048;-93
2021/01/24 14:32:23;;;;;;;5.22;3.38;;;;;;;;;;4859499;29;20051;-93
2021/01/24 14:35:29;;;;;;;8.32;6.13;;;;;;;;;;4842546;29;20052;-93
2021/01/24 14:38:24;;;;;;;29.75;10.10;;;;;;;;;;4869437;29;20037;-94
2021/01/24 14:41:20;;;;;;;22.00;10.35;;;;;;;;;;4856114;29;20072;-93
2021/01/24 14:44:06;;;;;;;14.93;7.90;;;;;;;;;;4867828;29;20044;-95
2021/01/24 14:50:37;;;;;;;16.83;7.75;;;;;;;;;;4901546;24;20057;-94
2021/01/24 14:53:48;;;;;;;14.95;7.70;;;;;;;;;;4841642;29;20118;-94
2021/01/24 14:57:15;;;;;;;16.00;9.20;;;;;;;;;;4841865;29;20047;-93
2021/01/24 14:59:59;;;;;;;19.70;8.90;;;;;;;;;;4823224;29;20060;-93
2021/01/24 15:03:18;;;;;;;17.50;9.00;;;;;;;;;;4857953;24;20058;-95
2021/01/24 15:06:29;;;;;;;16.20;7.90;;;;;;;;;;4977394;24;20424;-94
2021/01/24 15:09:18;;;;;;;12.88;8.52;;;;;;;;;;4842513;29;20060;-94
2021/01/24 15:12:05;;;;;;;16.67;9.55;;;;;;;;;;4851851;29;20055;-93
2021/01/24 15:15:23;;;;;;;20.50;9.00;;;;;;;;;;4867158;29;20061;-93
2021/01/24 15:18:54;;;;;;;17.98;9.95;;;;;;;;;;4850247;29;20060;-93
2021/01/24 15:22:14;;;;;;;18.30;9.02;;;;;;;;;;4871744;29;20053;-93
2021/01/24 15:25:13;;;;;;;21.58;10.10;;;;;;;;;;4848998;29;20595;-93
2021/01/24 15:28:27;;;;;;;15.27;8.07;;;;;;;;;;4866565;29;20055;-92
2021/01/24 15:31:29;;;;;;;14.88;8.70;;;;;;;;;;4860302;29;20052;-93
2021/01/24 15:34:05;;;;;;;15.50;7.60;;;;;;;;;;4820536;29;20042;-89
2021/01/24 15:36:47;;;;;;;16.88;8.63;;;;;;;;;;4849490;29;20068;-92
2021/01/24 15:39:35;;;;;;;13.48;7.88;;;;;;;;;;4849230;29;20061;-94
2021/01/24 15:42:22;;;;;;;13.23;9.40;;;;;;;;;;4840677;29;20061;-89
2021/01/24 15:44:59;;;;;;;12.80;6.93;;;2.80;99.90;;;;;;4819507;29;20046;-91
2021/01/24 15:47:36;;;;;;;16.08;8.88;;;2.70;99.90;;;;;;4851889;29;20058;-90
2021/01/24 15:50:15;;;;;;;14.73;8.98;;;2.60;99.90;;;;;;4841532;29;20054;-89
2021/01/24 15:52:48;;;;;;;17.00;7.32;;;;;;;;;;4852153;29;20059;-92
2021/01/24 15:55:47;;;;;;;10.15;6.22;;;;;;;;;;4835397;29;20053;-88
2021/01/24 15:58:31;;;;;;;15.15;7.55;;;;;;;;;;4849919;29;20054;-90
2021/01/24 16:01:04;;;;;;;13.27;8.45;;;;;;;;;;4828373;29;20058;-88
2021/01/24 16:03:38;;;;;;;8.88;5.07;;;;;;;;;;4839741;29;20054;-89
2021/01/24 16:06:13;;;;;;;13.88;7.15;;;;;;;;;;4826844;29;20058;-89
2021/01/24 16:08:44;;;;;;;13.13;6.60;;;;;;;;;;4842078;29;20049;-89
2021/01/24 16:11:21;;;;;;;11.63;5.97;;;;;;;;;;4875378;24;20046;-92
2021/01/24 16:14:17;;;;;;;16.90;6.82;;;;;;;;;;4872673;29;20048;-91